createdAt,value
2022-11-01T00:03:26.259Z,12.61
2022-11-01T00:08:22.387Z,11.80
2022-11-01T00:13:42.675Z,13.06
2022-11-01T00:18:57.688Z,12.53
2022-11-01T00:23:54.183Z,11.81
2022-11-01T00:28:54.542Z,12.18
2022-11-01T00:33:49.864Z,13.52
2022-11-01T00:38:44.713Z,12.90
2022-11-01T00:43:38.306Z,13.35
2022-11-01T00:48:32.047Z,12.90
2022-11-01T00:53:26.789Z,12.34
2022-11-01T00:58:21.680Z,11.35
2022-11-01T01:03:14.933Z,12.49
2022-11-01T01:08:08.304Z,12.73
2022-11-01T01:13:01.844Z,11.29
2022-11-01T01:17:56.675Z,12.58
2022-11-01T01:22:50.246Z,11.90
2022-11-01T01:27:43.472Z,12.50
2022-11-01T01:32:37.566Z,12.02
2022-11-01T01:37:32.234Z,12.39
2022-11-01T01:42:30.722Z,11.99
2022-11-01T01:47:27.479Z,11.95
2022-11-01T01:52:21.491Z,12.26
2022-11-01T01:57:16.506Z,10.74
2022-11-01T02:02:09.949Z,10.94
2022-11-01T02:07:03.564Z,11.84
2022-11-01T02:11:56.888Z,12.08
2022-11-01T02:17:00.034Z,11.34
2022-11-01T02:22:02.830Z,11.12
2022-11-01T02:27:10.413Z,11.83
2022-11-01T02:32:18.530Z,11.80
2022-11-01T02:37:16.337Z,11.39
2022-11-01T02:42:15.826Z,10.54
2022-11-01T02:47:12.331Z,10.65
2022-11-01T02:52:08.408Z,12.47
2022-11-01T02:57:08.092Z,12.65
2022-11-01T03:02:08.636Z,11.70
2022-11-01T03:07:08.190Z,11.78
2022-11-01T03:12:07.019Z,10.35
2022-11-01T03:17:04.123Z,11.64
2022-11-01T03:22:06.871Z,11.58
2022-11-01T03:27:05.237Z,10.84
2022-11-01T03:32:00.408Z,9.70
2022-11-01T03:36:57.767Z,10.59
2022-11-01T03:41:57.511Z,11.40
2022-11-01T03:46:51.730Z,10.36
2022-11-01T03:51:45.070Z,11.23
2022-11-01T03:56:40.667Z,11.12
2022-11-01T04:01:35.855Z,10.95
2022-11-01T04:06:29.462Z,9.73
2022-11-01T04:11:22.726Z,9.74
2022-11-01T04:16:33.598Z,10.68
2022-11-01T04:21:28.064Z,10.72
2022-11-01T04:26:22.626Z,9.80
2022-11-01T04:31:16.091Z,10.34
2022-11-01T04:36:10.375Z,9.84
2022-11-01T04:41:05.106Z,10.44
2022-11-01T04:46:00.457Z,9.67
2022-11-01T04:50:56.391Z,10.34
2022-11-01T04:56:12.864Z,8.85
2022-11-01T05:01:16.228Z,10.29
2022-11-01T05:06:15.584Z,10.37
2022-11-01T05:11:32.834Z,9.36
2022-11-01T05:16:27.797Z,9.14
2022-11-01T05:21:23.827Z,9.35
2022-11-01T05:26:17.463Z,10.66
2022-11-01T05:31:17.428Z,9.91
2022-11-01T05:36:13.429Z,9.41
2022-11-01T05:46:12.854Z,10.75
2022-11-01T05:51:06.524Z,9.68
2022-11-01T05:56:13.708Z,10.84
2022-11-01T06:01:12.447Z,11.32
2022-11-01T06:06:06.795Z,10.52
2022-11-01T06:11:22.886Z,10.95
2022-11-01T06:16:31.517Z,11.33
2022-11-01T06:21:55.664Z,11.05
2022-11-01T06:27:57.510Z,9.54
2022-11-01T06:33:17.386Z,10.06
2022-11-01T06:38:37.967Z,10.35
2022-11-01T06:43:49.327Z,10.42
2022-11-01T06:49:51.421Z,11.54
2022-11-01T07:02:14.548Z,10.61
2022-11-01T07:08:00.381Z,12.60
2022-11-01T07:13:33.911Z,11.74
2022-11-01T07:19:01.049Z,12.30
2022-11-01T07:37:04.616Z,12.98
2022-11-01T07:42:38.445Z,13.80
2022-11-01T07:47:56.341Z,14.41
2022-11-01T07:53:12.536Z,14.15
2022-11-01T07:58:11.680Z,13.22
2022-11-01T08:15:06.126Z,14.96
2022-11-01T08:20:18.551Z,14.93
2022-11-01T08:25:19.144Z,16.14
2022-11-01T08:30:18.153Z,14.96
2022-11-01T08:35:19.505Z,15.40
2022-11-01T08:40:13.758Z,16.93
2022-11-01T08:45:09.225Z,16.85
2022-11-01T08:50:07.135Z,16.05
2022-11-01T08:55:38.636Z,17.25
2022-11-01T09:00:36.770Z,18.67
2022-11-01T09:05:40.108Z,20.03
2022-11-01T09:10:56.685Z,20.72
2022-11-01T09:22:05.215Z,20.88
2022-11-01T09:27:08.781Z,20.59
2022-11-01T09:32:19.668Z,20.44
2022-11-01T09:37:15.873Z,21.19
2022-11-01T09:42:16.557Z,20.14
2022-11-01T09:47:17.675Z,20.18
2022-11-01T09:53:18.577Z,19.82
2022-11-01T10:05:29.141Z,21.30
2022-11-01T10:10:44.601Z,20.12
2022-11-01T10:15:50.957Z,21.29
2022-11-01T10:21:09.408Z,20.36
2022-11-01T10:26:20.909Z,21.73
2022-11-01T10:31:23.134Z,21.90
2022-11-01T10:36:25.083Z,21.68
2022-11-01T10:41:30.028Z,20.69
2022-11-01T10:46:35.101Z,20.86
2022-11-01T10:51:34.978Z,22.01
2022-11-01T10:56:41.033Z,21.57
2022-11-01T11:01:43.899Z,22.00
2022-11-01T11:11:59.474Z,21.66
2022-11-01T11:16:59.596Z,22.14
2022-11-01T11:22:04.764Z,22.35
2022-11-01T11:27:31.355Z,21.25
2022-11-01T11:32:41.423Z,22.28
2022-11-01T11:38:14.096Z,20.97
2022-11-01T11:43:42.745Z,21.99
2022-11-01T11:49:38.133Z,20.93
2022-11-01T11:54:57.954Z,21.41
2022-11-01T11:59:56.899Z,21.41
2022-11-01T12:04:57.500Z,21.49
2022-11-01T12:10:00.389Z,21.23
2022-11-01T12:14:58.399Z,22.16
2022-11-01T12:20:02.417Z,21.10
2022-11-01T12:25:05.423Z,21.75
2022-11-01T12:30:05.290Z,21.42
2022-11-01T12:35:08.984Z,21.75
2022-11-01T12:40:21.910Z,22.07
2022-11-01T12:45:30.524Z,21.47
2022-11-01T12:50:42.578Z,21.15
2022-11-01T12:56:01.860Z,21.03
2022-11-01T13:01:35.814Z,21.66
2022-11-01T13:07:00.920Z,22.42
2022-11-01T13:12:08.438Z,21.76
2022-11-01T13:17:11.226Z,22.05
2022-11-01T13:22:19.438Z,21.36
2022-11-01T13:27:20.083Z,21.33
2022-11-01T13:32:22.524Z,20.81
2022-11-01T13:37:35.726Z,20.90
2022-11-01T13:42:38.159Z,21.06
2022-11-01T13:48:08.708Z,22.04
2022-11-01T13:53:11.456Z,21.37
2022-11-01T13:58:08.420Z,21.79
2022-11-01T14:03:22.905Z,21.37
2022-11-01T14:08:30.903Z,20.62
2022-11-01T14:13:50.216Z,20.76
2022-11-01T14:19:20.117Z,20.30
2022-11-01T14:24:33.555Z,20.28
2022-11-01T14:29:36.314Z,20.60
2022-11-01T14:34:39.722Z,20.20
2022-11-01T14:39:40.243Z,20.73
2022-11-01T14:44:40.596Z,19.76
2022-11-01T14:49:49.247Z,19.68
2022-11-01T14:54:55.113Z,20.69
2022-11-01T14:59:55.434Z,20.45
2022-11-01T15:04:50.846Z,19.59
2022-11-01T15:10:06.246Z,20.04
2022-11-01T15:15:05.174Z,19.62
2022-11-01T15:20:00.218Z,18.67
2022-11-01T15:25:00.464Z,19.38
2022-11-01T15:29:57.059Z,18.21
2022-11-01T15:35:07.582Z,18.23
2022-11-01T15:40:34.524Z,19.19
2022-11-01T15:45:46.043Z,17.74
2022-11-01T15:50:53.954Z,19.02
2022-11-01T15:56:07.065Z,17.72
2022-11-01T16:01:04.426Z,17.69
2022-11-01T16:06:19.979Z,18.05
2022-11-01T16:11:29.741Z,18.64
2022-11-01T16:17:02.284Z,18.09
2022-11-01T16:22:06.734Z,17.31
2022-11-01T16:27:43.478Z,18.43
2022-11-01T16:33:13.714Z,16.69
2022-11-01T16:44:44.266Z,18.21
2022-11-01T17:00:00.790Z,17.86
2022-11-01T17:05:41.572Z,16.09
2022-11-01T17:10:49.673Z,16.75
2022-11-01T17:16:33.212Z,17.32
2022-11-01T17:21:50.884Z,16.14
2022-11-01T17:27:01.669Z,16.34
2022-11-01T17:38:12.527Z,16.69
2022-11-01T17:43:25.938Z,16.53
2022-11-01T17:49:27.647Z,14.98
2022-11-01T17:55:09.942Z,15.57
2022-11-01T18:00:25.862Z,15.37
2022-11-01T18:05:22.733Z,14.39
2022-11-01T18:10:37.847Z,14.62
2022-11-01T18:15:49.084Z,14.71
2022-11-01T18:21:10.517Z,14.62
2022-11-01T18:26:31.453Z,15.27
2022-11-01T18:31:39.403Z,15.61
2022-11-01T18:43:24.199Z,14.88
2022-11-01T18:54:53.567Z,15.23
2022-11-01T19:00:15.196Z,14.65
2022-11-01T19:05:23.290Z,15.31
2022-11-01T19:10:26.665Z,13.58
2022-11-01T19:15:34.964Z,13.53
2022-11-01T19:20:58.260Z,15.10
2022-11-01T19:26:09.305Z,14.43
2022-11-01T19:31:21.849Z,14.85
2022-11-01T19:36:40.888Z,13.46
2022-11-01T19:41:59.312Z,13.76
2022-11-01T19:47:43.818Z,13.08
2022-11-01T19:52:48.584Z,12.99
2022-11-01T19:58:55.327Z,12.44
2022-11-01T20:09:58.618Z,13.16
2022-11-01T20:22:20.981Z,13.93
2022-11-01T20:28:13.518Z,13.96
2022-11-01T20:33:51.618Z,14.02
2022-11-01T20:38:56.549Z,13.68
2022-11-01T20:45:11.307Z,13.26
2022-11-01T20:50:26.714Z,13.35
2022-11-01T20:56:01.172Z,14.20
2022-11-01T21:01:50.057Z,13.56
2022-11-01T21:07:21.916Z,14.03
2022-11-01T21:12:44.592Z,13.40
2022-11-01T21:17:43.357Z,12.51
2022-11-01T21:22:46.969Z,13.34
2022-11-01T21:27:58.843Z,13.29
2022-11-01T21:33:56.816Z,13.63
2022-11-01T21:39:05.107Z,13.05
2022-11-01T21:44:32.254Z,12.74
2022-11-01T21:49:32.235Z,13.02
2022-11-01T21:54:43.348Z,11.94
2022-11-01T21:59:43.846Z,12.10
2022-11-01T22:04:41.132Z,12.73
2022-11-01T22:10:17.724Z,13.06
2022-11-01T22:14:59.269Z,11.53
2022-11-01T22:25:44.553Z,11.84
2022-11-01T22:30:46.096Z,12.32
2022-11-01T22:35:45.346Z,12.70
2022-11-01T22:40:41.082Z,12.67
2022-11-01T22:45:43.244Z,11.35
2022-11-01T22:50:41.422Z,11.01
2022-11-01T22:55:44.396Z,12.29
2022-11-01T23:00:39.196Z,12.79
2022-11-01T23:05:35.653Z,11.04
2022-11-01T23:10:36.550Z,12.93
2022-11-01T23:15:31.553Z,12.54
2022-11-01T23:20:25.017Z,12.67
2022-11-01T23:25:18.550Z,11.97
2022-11-01T23:30:14.247Z,12.15
2022-11-01T23:35:15.879Z,13.57
2022-11-01T23:40:16.505Z,13.15
2022-11-01T23:45:22.522Z,13.19
2022-11-01T23:50:21.745Z,13.13
2022-11-01T23:55:21.038Z,12.29
